createdAt,value
2024-04-25T00:00:40.968Z,21.50
2024-04-25T00:05:45.948Z,21.50
2024-04-25T00:10:55.927Z,21.50
2024-04-25T00:16:02.317Z,21.48
2024-04-25T00:21:07.713Z,21.48
2024-04-25T00:26:15.321Z,21.49
2024-04-25T00:31:21.464Z,21.48
2024-04-25T00:36:26.346Z,21.48
2024-04-25T00:41:33.988Z,21.47
2024-04-25T00:46:39.812Z,21.48
2024-04-25T00:51:44.762Z,21.46
2024-04-25T00:56:52.466Z,21.47
2024-04-25T01:01:57.751Z,21.46
2024-04-25T01:07:03.115Z,21.46
2024-04-25T01:12:11.383Z,21.45
2024-04-25T01:17:16.369Z,21.45
2024-04-25T01:22:21.617Z,21.46
2024-04-25T01:27:29.895Z,21.45
2024-04-25T01:32:35.283Z,21.45
2024-04-25T01:37:40.256Z,21.45
2024-04-25T01:42:47.770Z,21.44
2024-04-25T01:47:52.929Z,21.44
2024-04-25T01:58:17.585Z,21.43
2024-04-25T02:03:22.741Z,21.43
2024-04-25T02:08:28.664Z,21.44
2024-04-25T02:13:36.164Z,21.44
2024-04-25T02:18:41.239Z,21.42
2024-04-25T02:24:01.791Z,21.41
2024-04-25T02:29:09.430Z,21.41
2024-04-25T02:34:14.326Z,21.41
2024-04-25T02:39:19.215Z,21.40
2024-04-25T02:44:26.813Z,21.40
2024-04-25T02:49:31.745Z,21.41
2024-04-25T02:54:36.621Z,21.40
2024-04-25T02:59:44.230Z,21.39
2024-04-25T03:04:49.172Z,21.39
2024-04-25T03:09:54.041Z,21.40
2024-04-25T03:15:01.889Z,21.39
2024-04-25T03:20:07.282Z,21.39
2024-04-25T03:25:12.248Z,21.39
2024-04-25T03:30:19.939Z,21.38
2024-04-25T03:35:25.013Z,21.39
2024-04-25T03:40:29.967Z,21.38
2024-04-25T03:45:37.660Z,21.39
2024-04-25T03:50:42.584Z,21.38
2024-04-25T03:55:47.478Z,21.38
2024-04-25T04:00:55.474Z,21.38
2024-04-25T04:06:00.458Z,21.38
2024-04-25T04:11:05.472Z,21.39
2024-04-25T04:16:13.173Z,21.38
2024-04-25T04:21:18.219Z,21.38
2024-04-25T04:26:23.147Z,21.37
2024-04-25T04:31:30.764Z,21.36
2024-04-25T04:36:36.288Z,21.36
2024-04-25T04:41:41.631Z,21.37
2024-04-25T04:46:49.412Z,21.36
2024-04-25T04:51:54.345Z,21.36
2024-04-25T04:56:59.303Z,21.35
2024-04-25T05:02:06.914Z,21.36
2024-04-25T05:07:11.918Z,21.35
2024-04-25T05:12:16.861Z,21.37
2024-04-25T05:17:24.433Z,21.36
2024-04-25T05:22:29.285Z,21.33
2024-04-25T05:27:35.751Z,21.35
2024-04-25T05:32:43.412Z,21.35
2024-04-25T05:37:48.380Z,21.34
2024-04-25T05:42:53.279Z,21.35
2024-04-25T05:48:01.283Z,21.34
2024-04-25T05:53:09.318Z,21.34
2024-04-25T05:58:14.414Z,21.35
2024-04-25T06:03:22.002Z,21.35
2024-04-25T06:08:27.037Z,21.33
2024-04-25T06:13:31.961Z,21.33
2024-04-25T06:18:39.568Z,21.35
2024-04-25T06:23:44.985Z,21.33
2024-04-25T06:28:49.982Z,21.34
2024-04-25T06:34:02.604Z,21.37
2024-04-25T06:39:08.078Z,21.34
2024-04-25T06:44:19.091Z,21.37
2024-04-25T06:49:35.153Z,21.38
2024-04-25T06:54:40.103Z,21.39
2024-04-25T06:59:47.513Z,21.39
2024-04-25T07:04:59.448Z,21.38
2024-04-25T07:10:05.000Z,21.37
2024-04-25T07:15:11.052Z,21.39
2024-04-25T07:20:18.692Z,21.40
2024-04-25T07:25:23.623Z,21.41
2024-04-25T07:30:28.506Z,21.42
2024-04-25T07:35:36.047Z,21.45
2024-04-25T07:40:41.009Z,21.44
2024-04-25T07:45:47.405Z,21.44
2024-04-25T07:50:55.190Z,21.46
2024-04-25T07:56:00.136Z,21.46
2024-04-25T08:01:05.560Z,21.47
2024-04-25T08:06:13.632Z,21.50
2024-04-25T08:11:18.731Z,21.48
2024-04-25T08:16:23.766Z,21.51
2024-04-25T08:21:31.270Z,21.51
2024-04-25T08:26:36.390Z,21.51
2024-04-25T08:31:41.287Z,21.51
2024-04-25T08:36:48.824Z,21.50
2024-04-25T08:41:54.785Z,21.54
2024-04-25T08:47:00.180Z,21.54
2024-04-25T08:52:09.099Z,21.53
2024-04-25T08:57:14.125Z,21.54
2024-04-25T09:02:19.498Z,21.56
2024-04-25T09:07:28.667Z,21.54
2024-04-25T09:12:35.545Z,21.57
2024-04-25T09:17:40.620Z,21.57
2024-04-25T09:22:51.450Z,21.58
2024-04-25T09:27:57.718Z,21.59
2024-04-25T09:33:06.622Z,21.59
2024-04-25T09:38:15.760Z,21.62
2024-04-25T09:43:21.287Z,21.61
2024-04-25T09:48:27.304Z,21.60
2024-04-25T09:53:39.684Z,21.61
2024-04-25T09:58:50.347Z,21.63
2024-04-25T10:03:55.514Z,21.62
2024-04-25T10:09:03.183Z,21.63
2024-04-25T10:14:08.197Z,21.63
2024-04-25T10:19:13.175Z,21.63
2024-04-25T10:24:24.924Z,21.66
2024-04-25T10:29:34.063Z,21.66
2024-04-25T10:34:38.949Z,21.67
2024-04-25T10:39:49.807Z,21.68
2024-04-25T10:44:58.224Z,21.66
2024-04-25T10:50:03.318Z,21.68
2024-04-25T10:55:10.975Z,21.64
2024-04-25T11:00:17.245Z,21.67
2024-04-25T11:05:23.652Z,21.66
2024-04-25T11:10:31.319Z,21.67
2024-04-25T11:15:37.805Z,21.65
2024-04-25T11:20:44.319Z,21.68
2024-04-25T11:25:52.792Z,21.71
2024-04-25T11:30:59.993Z,21.71
2024-04-25T11:36:06.827Z,21.71
2024-04-25T11:41:14.348Z,21.70
2024-04-25T11:46:19.251Z,21.70
2024-04-25T11:51:24.195Z,21.67
2024-04-25T11:56:33.575Z,21.69
2024-04-25T12:01:38.529Z,21.70
2024-04-25T12:06:43.482Z,21.72
2024-04-25T12:11:56.096Z,21.70
2024-04-25T12:17:07.169Z,21.72
2024-04-25T12:22:13.186Z,21.71
2024-04-25T12:27:20.745Z,21.72
2024-04-25T12:32:25.789Z,21.72
2024-04-25T12:37:30.666Z,21.76
2024-04-25T12:42:38.204Z,21.76
2024-04-25T12:47:43.157Z,21.76
2024-04-25T12:52:48.131Z,21.73
2024-04-25T12:57:58.343Z,21.74
2024-04-25T13:03:03.295Z,21.76
2024-04-25T13:08:10.354Z,21.77
2024-04-25T13:13:19.955Z,21.77
2024-04-25T13:18:24.980Z,21.79
2024-04-25T13:23:30.012Z,21.79
2024-04-25T13:28:37.615Z,21.79
2024-04-25T13:33:42.638Z,21.79
2024-04-25T13:38:47.601Z,21.80
2024-04-25T13:43:55.143Z,21.80
2024-04-25T13:49:00.228Z,21.81
2024-04-25T13:54:07.939Z,21.82
2024-04-25T13:59:17.907Z,21.82
2024-04-25T14:04:22.868Z,21.82
2024-04-25T14:09:27.803Z,21.83
2024-04-25T14:14:35.430Z,21.83
2024-04-25T14:19:40.353Z,21.83
2024-04-25T14:24:47.307Z,21.82
2024-04-25T14:29:55.157Z,21.82
2024-04-25T14:35:01.098Z,21.80
2024-04-25T14:40:06.086Z,21.83
2024-04-25T14:45:13.671Z,21.83
2024-04-25T14:50:18.816Z,21.83
2024-04-25T14:55:24.101Z,21.85
2024-04-25T15:00:31.657Z,21.83
2024-04-25T15:05:36.701Z,21.85
2024-04-25T15:10:46.097Z,21.85
2024-04-25T15:15:58.702Z,21.86
2024-04-25T15:21:04.768Z,21.86
2024-04-25T15:26:09.882Z,21.85
2024-04-25T15:31:20.276Z,21.86
2024-04-25T15:36:25.231Z,21.86
2024-04-25T15:41:30.149Z,21.86
2024-04-25T15:46:40.023Z,21.86
2024-04-25T15:51:45.408Z,21.87
2024-04-25T15:56:51.069Z,21.86
2024-04-25T16:01:58.819Z,21.85
2024-04-25T16:07:03.694Z,21.87
2024-04-25T16:12:09.980Z,21.87
2024-04-25T16:17:17.749Z,21.87
2024-04-25T16:22:22.793Z,21.88
2024-04-25T16:27:28.727Z,21.88
2024-04-25T16:32:36.513Z,21.88
2024-04-25T16:37:41.792Z,21.87
2024-04-25T16:42:48.326Z,21.87
2024-04-25T16:47:55.913Z,21.87
2024-04-25T16:53:01.028Z,21.86
2024-04-25T16:58:07.666Z,21.87
2024-04-25T17:03:16.525Z,21.88
2024-04-25T17:08:21.558Z,21.88
2024-04-25T17:13:26.636Z,21.87
2024-04-25T17:18:34.617Z,21.88
2024-04-25T17:23:39.588Z,21.89
2024-04-25T17:28:44.511Z,21.88
2024-04-25T17:33:52.198Z,21.88
2024-04-25T17:38:57.208Z,21.90
2024-04-25T17:44:02.148Z,21.87
2024-04-25T17:49:09.815Z,21.87
2024-04-25T17:54:14.792Z,21.87
2024-04-25T17:59:19.733Z,21.88
2024-04-25T18:04:27.354Z,21.89
2024-04-25T18:09:32.309Z,21.88
2024-04-25T18:14:37.191Z,21.87
2024-04-25T18:19:44.836Z,21.88
2024-04-25T18:24:49.736Z,21.88
2024-04-25T18:29:54.681Z,21.88
2024-04-25T18:35:02.294Z,21.86
2024-04-25T18:40:08.127Z,21.87
2024-04-25T18:45:13.050Z,21.85
2024-04-25T18:50:20.880Z,21.85
2024-04-25T18:55:26.330Z,21.85
2024-04-25T19:00:31.264Z,21.86
2024-04-25T19:05:38.893Z,21.84
2024-04-25T19:10:44.079Z,21.83
2024-04-25T19:15:49.063Z,21.85
2024-04-25T19:20:59.774Z,21.84
2024-04-25T19:26:04.734Z,21.84
2024-04-25T19:31:09.727Z,21.82
2024-04-25T19:36:19.757Z,21.82
2024-04-25T19:41:24.690Z,21.82
2024-04-25T19:46:29.642Z,21.82
2024-04-25T19:51:37.289Z,21.80
2024-04-25T19:56:48.474Z,21.80
2024-04-25T20:01:54.339Z,21.80
2024-04-25T20:07:01.920Z,21.80
2024-04-25T20:12:07.398Z,21.80
2024-04-25T20:17:13.872Z,21.78
2024-04-25T20:22:21.375Z,21.76
2024-04-25T20:27:26.307Z,21.76
2024-04-25T20:32:31.270Z,21.77
2024-04-25T20:37:38.924Z,21.79
2024-04-25T20:42:43.806Z,21.77
2024-04-25T20:47:48.823Z,21.77
2024-04-25T20:52:56.401Z,21.75
2024-04-25T20:58:01.305Z,21.76
2024-04-25T21:03:06.338Z,21.76
2024-04-25T21:08:13.918Z,21.74
2024-04-25T21:13:18.792Z,21.75
2024-04-25T21:18:23.737Z,21.73
2024-04-25T21:23:31.438Z,21.72
2024-04-25T21:28:36.443Z,21.70
2024-04-25T21:33:41.407Z,21.73
2024-04-25T21:38:49.058Z,21.72
2024-04-25T21:43:53.978Z,21.72
2024-04-25T21:48:59.052Z,21.71
2024-04-25T21:54:07.053Z,21.70
2024-04-25T21:59:11.980Z,21.69
2024-04-25T22:04:16.875Z,21.71
2024-04-25T22:09:24.411Z,21.72
2024-04-25T22:14:29.356Z,21.70
2024-04-25T22:19:34.310Z,21.71
2024-04-25T22:24:41.850Z,21.69
2024-04-25T22:29:46.758Z,21.69
2024-04-25T22:34:51.728Z,21.70
2024-04-25T22:39:59.304Z,21.69
2024-04-25T22:45:06.227Z,21.69
2024-04-25T22:50:12.606Z,21.69
2024-04-25T22:55:20.218Z,21.68
2024-04-25T23:00:28.274Z,21.68
2024-04-25T23:05:38.848Z,21.68
2024-04-25T23:10:46.863Z,21.69
2024-04-25T23:15:51.762Z,21.69
2024-04-25T23:20:56.759Z,21.68
2024-04-25T23:26:04.371Z,21.69
2024-04-25T23:31:09.311Z,21.68
2024-04-25T23:36:14.288Z,21.69
2024-04-25T23:41:22.052Z,21.68
2024-04-25T23:46:26.962Z,21.69
2024-04-25T23:51:31.887Z,21.68
2024-04-25T23:56:39.504Z,21.68
